This is the latest recevied weather packets stored in our database for station/object NN5DX-12. If no packets are shown the sender has not sent any weather packets the latest 10 day(s).
| Time | Temp. | Humidity | Pressure | Rain* | Wind** | Luminosity | Snow |
|---|---|---|---|---|---|---|---|
| 1777661716 | 7.78° C | 54% | 1026.1 hPa | 1.52 mm | - | - | - |
| 1777661416 | 7.78° C | 54% | 1026.1 hPa | 1.78 mm | - | - | - |
| 1777661117 | 7.78° C | 52% | 1026.1 hPa | 2.03 mm | - | - | - |
| 1777660817 | 6.67° C | 54% | 1025.6 hPa | 2.54 mm | - | - | - |
| 1777660516 | 6.67° C | 55% | 1025.6 hPa | 2.79 mm | - | - | - |
| 1777660216 | 6.11° C | 58% | 1025.7 hPa | 3.05 mm | - | - | - |
| 1777659916 | 6.67° C | 60% | 1025.8 hPa | 3.56 mm | - | - | - |
| 1777659617 | 6.11° C | 62% | 1025.9 hPa | 4.06 mm | - | - | - |
| 1777659316 | 5.56° C | 60% | 1025.3 hPa | 4.57 mm | - | - | - |
| 1777659016 | 5.56° C | 59% | 1025.3 hPa | 5.08 mm | - | - | - |
| 1777658716 | 5.56° C | 57% | 1025.2 hPa | 4.83 mm | - | - | - |
| 1777658416 | 5.56° C | 56% | 1025.3 hPa | 4.83 mm | - | - | - |
| 1777658116 | 5.56° C | 65% | 1025.4 hPa | 4.83 mm | - | - | - |
| 1777657816 | 6.11° C | 61% | 1026 hPa | 4.83 mm | - | - | - |
| 1777657517 | 6.67° C | 65% | 1026.7 hPa | 4.83 mm | - | - | - |
| 1777657216 | 6.11° C | 67% | 1026.2 hPa | 4.83 mm | - | - | - |
| 1777656916 | 6.67° C | 61% | 1026.2 hPa | 5.08 mm | - | - | - |
| 1777656617 | 6.11° C | 64% | 1026.3 hPa | 5.08 mm | - | - | - |
| 1777656317 | 6.11° C | 60% | 1026.2 hPa | 5.08 mm | - | - | - |
| 1777656016 | 6.67° C | 59% | 1026.3 hPa | 4.83 mm | - | - | - |
| 1777655716 | 7.22° C | 65% | 1027.1 hPa | 4.83 mm | - | - | - |
| 1777655416 | 6.67° C | 63% | 1027.1 hPa | 4.57 mm | - | - | - |
| 1777655116 | 5.56° C | 68% | 1026.7 hPa | 4.83 mm | - | - | - |
| 1777654817 | 5° C | 73% | 1026.2 hPa | 4.83 mm | - | - | - |
| 1777654516 | 5° C | 71% | 1026.1 hPa | 4.57 mm | - | - | - |
* Rain latest hour (hover to see other rain measurements)
** Current wind speed in m/s (hover to see current wind gust speed)